Columbia, North Carolina
Current Conditions -  °F | °C
As of 9:35 PM on Tuesday 21 Oct 2014 (Local Time) from KEDE Reporting Station
Overcast Overcast  
Wind Chill: 16°   Ceiling: 11000
Heat Index: 16°   Visibility: 10mi
Dew Point: 14°   Wind: 0mph
Humidity: 83%   Direction: NA
Pressure: 29.86"   Gusts: NA
Location:  35.92°N, 76.25°W
Report Text: KEDE 220135Z AUTO 00000KT 10SM SCT075 OVC110 16/14 A2986 RMK AO2 T01640135
Loading
Personal Weather Stations






























Interactive Weather Map
Tropical Storm Tracking
New forecast layout! Learn more

10-Day Weather Forecast

Advertisements
Track Severe Weather on mobile